createdAt,value
2017-05-27T00:00:39.290Z,17.97
2017-05-27T00:01:38.967Z,17.92
2017-05-27T00:02:38.640Z,17.89
2017-05-27T00:03:39.258Z,17.82
2017-05-27T00:04:38.628Z,17.79
2017-05-27T00:05:39.243Z,17.85
2017-05-27T00:06:39.234Z,17.79
2017-05-27T00:07:39.431Z,17.81
2017-05-27T00:08:39.221Z,17.84
2017-05-27T00:09:38.893Z,17.71
2017-05-27T00:10:38.566Z,17.73
2017-05-27T00:11:39.193Z,17.7
2017-05-27T00:12:38.865Z,17.69
2017-05-27T00:13:38.852Z,17.66
2017-05-27T00:14:39.156Z,17.69
2017-05-27T00:15:38.834Z,17.59
2017-05-27T00:16:39.140Z,17.64
2017-05-27T00:17:38.820Z,17.62
2017-05-27T00:18:38.805Z,17.63
2017-05-27T00:19:39.109Z,17.54
2017-05-27T00:20:38.471Z,17.63
2017-05-27T00:21:38.776Z,17.63
2017-05-27T00:22:39.080Z,17.62
2017-05-27T00:23:39.074Z,17.57
2017-05-27T00:24:38.747Z,17.66
2017-05-27T00:25:38.426Z,17.66
2017-05-27T00:26:38.728Z,17.64
2017-05-27T00:27:38.720Z,17.66
2017-05-27T00:28:39.025Z,17.57
2017-05-27T00:29:39.012Z,17.51
2017-05-27T00:30:39.003Z,17.59
2017-05-27T00:31:38.682Z,17.54
2017-05-27T00:32:38.674Z,17.63
2017-05-27T00:33:38.667Z,17.57
2017-05-27T00:34:38.974Z,17.62
2017-05-27T00:35:38.645Z,17.5
2017-05-27T00:36:38.632Z,17.47
2017-05-27T00:37:38.934Z,17.4
2017-05-27T00:38:38.617Z,17.48
2017-05-27T00:39:38.922Z,17.47
2017-05-27T00:40:38.594Z,17.51
2017-05-27T00:41:38.584Z,17.48
2017-05-27T00:42:38.599Z,17.4
2017-05-27T00:43:38.884Z,17.53
2017-05-27T00:44:38.892Z,17.35
2017-05-27T00:45:38.870Z,17.36
2017-05-27T00:46:38.847Z,17.36
2017-05-27T00:47:38.530Z,17.36
2017-05-27T00:48:38.525Z,17.38
2017-05-27T00:49:38.511Z,17.28
2017-05-27T00:50:38.544Z,17.35
2017-05-27T00:51:38.486Z,17.36
2017-05-27T00:52:38.159Z,17.32
2017-05-27T00:53:38.152Z,17.33
2017-05-27T00:54:38.458Z,17.36
2017-05-27T00:55:38.447Z,17.33
2017-05-27T00:56:38.436Z,17.29
2017-05-27T00:57:38.112Z,17.33
2017-05-27T00:58:38.735Z,17.33
2017-05-27T00:59:38.408Z,17.33
2017-05-27T01:00:38.402Z,17.32
2017-05-27T01:01:38.389Z,17.33
2017-05-27T01:02:38.697Z,17.32
2017-05-27T01:03:38.057Z,17.26
2017-05-27T01:04:38.362Z,17.25
2017-05-27T01:05:38.667Z,17.25
2017-05-27T01:06:38.341Z,17.22
2017-05-27T01:07:38.014Z,17.22
2017-05-27T01:08:38.354Z,17.22
2017-05-27T01:09:38.310Z,17.2
2017-05-27T01:10:38.663Z,17.22
2017-05-27T01:11:38.291Z,17.25
2017-05-27T01:12:38.279Z,17.18
2017-05-27T01:13:38.582Z,17.22
2017-05-27T01:14:38.263Z,17.22
2017-05-27T01:15:37.933Z,17.17
2017-05-27T01:16:38.238Z,17.18
2017-05-27T01:17:38.545Z,17.17
2017-05-27T01:18:38.543Z,17.15
2017-05-27T01:19:37.899Z,17.15
2017-05-27T01:20:38.197Z,17.14
2017-05-27T01:21:38.503Z,17.17
2017-05-27T01:22:38.176Z,17.13
2017-05-27T01:23:38.169Z,17.11
2017-05-27T01:24:38.159Z,17.15
2017-05-27T01:25:38.465Z,17.14
2017-05-27T01:26:38.457Z,17.13
2017-05-27T01:27:37.814Z,17.13
2017-05-27T01:28:38.126Z,17.11
2017-05-27T01:29:38.110Z,17.08
2017-05-27T01:30:38.412Z,17.07
2017-05-27T01:31:38.405Z,17.06
2017-05-27T01:32:38.400Z,17.06
2017-05-27T01:33:38.069Z,17.04
2017-05-27T01:34:38.060Z,17.1
2017-05-27T01:35:38.364Z,17.08
2017-05-27T01:36:38.046Z,17.11
2017-05-27T01:37:38.036Z,17.13
2017-05-27T01:38:38.347Z,17.04
2017-05-27T01:39:38.008Z,17.07
2017-05-27T01:40:37.686Z,17.1
2017-05-27T01:41:38.301Z,17.1
2017-05-27T01:42:38.298Z,17
2017-05-27T01:43:37.976Z,17.08
2017-05-27T01:44:37.648Z,16.96
2017-05-27T01:45:37.954Z,17.03
2017-05-27T01:46:37.630Z,17.08
2017-05-27T01:47:38.245Z,16.96
2017-05-27T01:48:37.609Z,16.96
2017-05-27T01:49:38.282Z,16.95
2017-05-27T01:50:37.910Z,16.96
2017-05-27T01:51:37.628Z,16.99
2017-05-27T01:52:38.195Z,16.95
2017-05-27T01:53:38.186Z,16.93
2017-05-27T01:54:38.190Z,17.06
2017-05-27T01:55:37.846Z,17.03
2017-05-27T01:56:37.914Z,16.99
2017-05-27T01:57:38.145Z,17.11
2017-05-27T01:58:37.505Z,17.07
2017-05-27T01:59:37.811Z,17.08
2017-05-27T02:00:37.796Z,17.03
2017-05-27T02:01:37.787Z,17.04
2017-05-27T02:02:38.099Z,17.06
2017-05-27T02:03:38.082Z,17.04
2017-05-27T02:04:37.760Z,16.96
2017-05-27T02:05:38.064Z,16.96
2017-05-27T02:06:37.753Z,17.03
2017-05-27T02:07:37.929Z,17.08
2017-05-27T02:08:38.037Z,17.08
2017-05-27T02:09:37.709Z,17.07
2017-05-27T02:10:37.716Z,17.06
2017-05-27T02:11:37.685Z,17.03
2017-05-27T02:12:37.989Z,16.93
2017-05-27T02:13:37.666Z,16.99
2017-05-27T02:14:37.973Z,16.86
2017-05-27T02:15:37.960Z,16.89
2017-05-27T02:16:37.684Z,16.9
2017-05-27T02:17:37.939Z,16.88
2017-05-27T02:18:37.935Z,16.77
2017-05-27T02:19:37.626Z,16.71
2017-05-27T02:20:37.600Z,16.78
2017-05-27T02:21:37.325Z,16.7
2017-05-27T02:22:37.569Z,16.71
2017-05-27T02:23:37.563Z,16.7
2017-05-27T02:24:37.239Z,16.85
2017-05-27T02:25:37.861Z,16.78
2017-05-27T02:26:37.284Z,16.83
2017-05-27T02:27:37.841Z,16.71
2017-05-27T02:28:37.200Z,16.71
2017-05-27T02:29:37.192Z,16.8
2017-05-27T02:30:37.503Z,16.73
2017-05-27T02:31:37.847Z,16.71
2017-05-27T02:32:37.793Z,16.59
2017-05-27T02:33:37.147Z,16.62
2017-05-27T02:34:37.813Z,16.62
2017-05-27T02:35:37.755Z,16.55
2017-05-27T02:36:37.440Z,16.56
2017-05-27T02:37:37.761Z,16.55
2017-05-27T02:38:37.730Z,16.49
2017-05-27T02:39:37.711Z,16.59
2017-05-27T02:40:37.405Z,16.42
2017-05-27T02:41:37.380Z,16.44
2017-05-27T02:42:37.698Z,16.38
2017-05-27T02:43:37.676Z,16.4
2017-05-27T02:44:37.364Z,16.27
2017-05-27T02:45:37.025Z,16.26
2017-05-27T02:46:37.658Z,16.26
2017-05-27T02:47:37.318Z,16.31
2017-05-27T02:48:37.310Z,16.31
2017-05-27T02:49:37.611Z,16.27
2017-05-27T02:50:37.310Z,16.31
2017-05-27T02:51:36.961Z,16.33
2017-05-27T02:52:37.269Z,16.25
2017-05-27T02:53:37.253Z,16.25
2017-05-27T02:54:37.271Z,16.23
2017-05-27T02:55:37.232Z,16.26
2017-05-27T02:56:36.905Z,16.23
2017-05-27T02:57:37.529Z,16.23
2017-05-27T02:58:37.516Z,16.2
2017-05-27T02:59:36.876Z,16.22
2017-05-27T03:00:37.496Z,16.18
2017-05-27T03:01:37.172Z,16.18
2017-05-27T03:02:37.160Z,16.16
2017-05-27T03:03:37.166Z,16.18
2017-05-27T03:04:37.134Z,16.15
2017-05-27T03:05:37.124Z,16.15
2017-05-27T03:06:36.802Z,16.16
2017-05-27T03:07:37.107Z,16.16
2017-05-27T03:08:36.781Z,16.15
2017-05-27T03:09:37.083Z,16.12
2017-05-27T03:10:37.074Z,16.11
2017-05-27T03:11:37.067Z,16.06
2017-05-27T03:12:37.376Z,16.04
2017-05-27T03:13:37.043Z,16.01
2017-05-27T03:14:37.350Z,16.03
2017-05-27T03:15:37.017Z,15.94
2017-05-27T03:16:37.012Z,15.96
2017-05-27T03:17:37.315Z,15.94
2017-05-27T03:18:36.675Z,15.93
2017-05-27T03:19:36.981Z,15.93
2017-05-27T03:20:36.656Z,15.88
2017-05-27T03:21:36.959Z,15.89
2017-05-27T03:22:36.959Z,15.75
2017-05-27T03:23:36.939Z,15.75
2017-05-27T03:24:36.608Z,15.82
2017-05-27T03:25:37.227Z,15.76
2017-05-27T03:26:36.593Z,15.74
2017-05-27T03:27:36.895Z,15.61
2017-05-27T03:28:36.566Z,15.63
2017-05-27T03:29:36.876Z,15.66
2017-05-27T03:30:36.550Z,15.63
2017-05-27T03:31:36.852Z,15.59
2017-05-27T03:32:36.837Z,15.6
2017-05-27T03:33:36.512Z,15.64
2017-05-27T03:34:37.138Z,15.56
2017-05-27T03:35:36.860Z,15.54
2017-05-27T03:36:36.481Z,15.64
2017-05-27T03:37:36.788Z,15.54
2017-05-27T03:38:36.774Z,15.54
2017-05-27T03:39:37.084Z,15.49
2017-05-27T03:40:36.435Z,15.52
2017-05-27T03:41:36.746Z,15.52
2017-05-27T03:42:37.146Z,15.48
2017-05-27T03:43:36.410Z,15.56
2017-05-27T03:44:36.712Z,15.45
2017-05-27T03:45:36.695Z,15.48
2017-05-27T03:46:36.393Z,15.43
2017-05-27T03:47:36.997Z,15.36
2017-05-27T03:48:36.669Z,15.41
2017-05-27T03:49:36.661Z,15.36
2017-05-27T03:50:36.325Z,15.38
2017-05-27T03:51:36.630Z,15.35
2017-05-27T03:52:36.625Z,15.35
2017-05-27T03:53:36.612Z,15.28
2017-05-27T03:54:36.609Z,15.31
2017-05-27T03:55:36.596Z,15.28
2017-05-27T03:56:36.897Z,15.33
2017-05-27T03:57:36.589Z,15.31
2017-05-27T03:58:36.870Z,15.21
2017-05-27T03:59:36.546Z,15.28
2017-05-27T04:00:36.562Z,15.27
2017-05-27T04:01:36.525Z,15.28
2017-05-27T04:02:36.522Z,15.28
2017-05-27T04:03:36.198Z,15.3
2017-05-27T04:04:36.808Z,15.24
2017-05-27T04:05:36.792Z,15.28
2017-05-27T04:06:36.778Z,15.33
2017-05-27T04:07:36.653Z,15.36
2017-05-27T04:08:36.499Z,15.31
2017-05-27T04:09:36.437Z,15.31
2017-05-27T04:10:36.747Z,15.33
2017-05-27T04:11:36.413Z,15.41
2017-05-27T04:12:36.721Z,15.39
2017-05-27T04:13:36.076Z,15.39
2017-05-27T04:14:36.060Z,15.38
2017-05-27T04:15:36.367Z,15.45
2017-05-27T04:16:36.360Z,15.48
2017-05-27T04:17:36.660Z,15.56
2017-05-27T04:18:36.651Z,15.54
2017-05-27T04:19:36.640Z,15.52
2017-05-27T04:20:36.309Z,15.51
2017-05-27T04:21:36.611Z,15.52
2017-05-27T04:22:35.983Z,15.57
2017-05-27T04:23:35.970Z,15.59
2017-05-27T04:24:36.270Z,15.59
2017-05-27T04:25:36.253Z,15.7
2017-05-27T04:26:36.554Z,15.67
2017-05-27T04:27:36.547Z,15.76
2017-05-27T04:28:36.220Z,15.74
2017-05-27T04:29:36.560Z,15.74
2017-05-27T04:30:36.516Z,15.74
2017-05-27T04:31:36.502Z,15.78
2017-05-27T04:32:35.860Z,15.82
2017-05-27T04:33:36.531Z,15.88
2017-05-27T04:34:36.219Z,15.82
2017-05-27T04:35:36.148Z,15.81
2017-05-27T04:36:36.447Z,15.85
2017-05-27T04:37:35.809Z,15.88
2017-05-27T04:38:35.798Z,15.96
2017-05-27T04:39:36.412Z,15.88
2017-05-27T04:40:36.099Z,15.93
2017-05-27T04:41:36.081Z,15.96
2017-05-27T04:42:36.384Z,16.09
2017-05-27T04:43:36.373Z,16.12
2017-05-27T04:44:36.045Z,16.16
2017-05-27T04:45:36.032Z,16.16
2017-05-27T04:46:36.024Z,16.16
2017-05-27T04:47:36.021Z,16.18
2017-05-27T04:48:35.689Z,16.26
2017-05-27T04:49:36.310Z,16.26
2017-05-27T04:50:36.292Z,16.26
2017-05-27T04:51:36.290Z,16.27
2017-05-27T04:52:35.962Z,16.35
2017-05-27T04:53:35.956Z,16.4
2017-05-27T04:54:36.251Z,16.37
2017-05-27T04:55:35.931Z,16.42
2017-05-27T04:56:36.234Z,16.5
2017-05-27T04:57:36.233Z,16.55
2017-05-27T04:58:35.904Z,16.45
2017-05-27T04:59:35.579Z,16.53
2017-05-27T05:00:36.191Z,16.52
2017-05-27T05:01:35.871Z,16.55
2017-05-27T05:02:35.549Z,16.62
2017-05-27T05:03:35.847Z,16.63
2017-05-27T05:04:36.151Z,16.68
2017-05-27T05:05:35.831Z,16.71
2017-05-27T05:06:35.533Z,16.74
2017-05-27T05:07:36.124Z,16.83
2017-05-27T05:08:35.482Z,16.8
2017-05-27T05:09:35.838Z,16.7
2017-05-27T05:10:35.771Z,16.83
2017-05-27T05:11:35.766Z,16.78
2017-05-27T05:12:35.752Z,16.86
2017-05-27T05:13:36.062Z,16.98
2017-05-27T05:14:35.742Z,16.98
2017-05-27T05:15:36.089Z,17.03
2017-05-27T05:16:35.712Z,17.1
2017-05-27T05:17:35.702Z,16.99
2017-05-27T05:18:35.689Z,17.08
2017-05-27T05:19:35.993Z,17.06
2017-05-27T05:20:35.671Z,17.1
2017-05-27T05:21:35.972Z,17.13
2017-05-27T05:22:35.959Z,17.14
2017-05-27T05:23:35.956Z,17.17
2017-05-27T05:24:35.942Z,17.32
2017-05-27T05:25:35.618Z,17.4
2017-05-27T05:26:35.919Z,17.53
2017-05-27T05:27:35.914Z,17.53
2017-05-27T05:28:35.903Z,17.51
2017-05-27T05:29:35.581Z,17.55
2017-05-27T05:30:35.573Z,17.57
2017-05-27T05:31:35.555Z,17.55
2017-05-27T05:32:35.229Z,17.67
2017-05-27T05:33:35.881Z,17.69
2017-05-27T05:34:35.530Z,17.67
2017-05-27T05:35:35.519Z,17.79
2017-05-27T05:36:35.568Z,17.79
2017-05-27T05:37:35.500Z,17.84
2017-05-27T05:38:35.799Z,17.82
2017-05-27T05:39:35.816Z,17.85
2017-05-27T05:40:35.793Z,17.87
2017-05-27T05:41:35.142Z,17.99
2017-05-27T05:42:35.446Z,17.97
2017-05-27T05:43:35.753Z,17.94
2017-05-27T05:44:35.430Z,18.1
2017-05-27T05:45:35.735Z,18.1
2017-05-27T05:46:35.410Z,18.12
2017-05-27T05:47:35.397Z,18.13
2017-05-27T05:48:35.074Z,18.15
2017-05-27T05:49:35.384Z,18.21
2017-05-27T05:50:35.056Z,18.24
2017-05-27T05:51:35.055Z,18.33
2017-05-27T05:52:35.355Z,18.36
2017-05-27T05:53:35.342Z,18.36
2017-05-27T05:54:35.076Z,18.4
2017-05-27T05:55:35.637Z,18.4
2017-05-27T05:56:35.630Z,18.5
2017-05-27T05:57:35.615Z,18.58
2017-05-27T05:58:35.663Z,18.68
2017-05-27T05:59:35.638Z,18.57
2017-05-27T06:00:34.971Z,18.68
2017-05-27T06:01:35.265Z,18.67
2017-05-27T06:02:35.789Z,18.67
2017-05-27T06:03:35.563Z,18.77
2017-05-27T06:04:35.575Z,18.87
2017-05-27T06:05:34.916Z,18.98
2017-05-27T06:06:34.910Z,18.98
2017-05-27T06:07:35.103Z,18.95
2017-05-27T06:08:34.977Z,19.02
2017-05-27T06:09:35.510Z,19.08
2017-05-27T06:10:35.248Z,19.06
2017-05-27T06:11:35.181Z,19.14
2017-05-27T06:12:35.196Z,19.28
2017-05-27T06:13:35.183Z,19.35
2017-05-27T06:14:35.167Z,19.38
2017-05-27T06:15:35.153Z,19.4
2017-05-27T06:16:35.470Z,19.4
2017-05-27T06:17:35.127Z,19.55
2017-05-27T06:18:35.141Z,19.58
2017-05-27T06:19:35.117Z,19.69
2017-05-27T06:20:34.792Z,19.72
2017-05-27T06:21:35.111Z,19.78
2017-05-27T06:22:34.773Z,19.88
2017-05-27T06:23:35.401Z,19.94
2017-05-27T06:24:35.076Z,20.1
2017-05-27T06:25:34.758Z,20.16
2017-05-27T06:26:35.378Z,20.23
2017-05-27T06:27:34.735Z,20.27
2017-05-27T06:28:35.413Z,20.42
2017-05-27T06:29:34.720Z,20.42
2017-05-27T06:30:35.041Z,20.42
2017-05-27T06:31:35.336Z,20.43
2017-05-27T06:32:35.020Z,20.65
2017-05-27T06:33:35.327Z,20.65
2017-05-27T06:34:35.323Z,20.69
2017-05-27T06:35:35.302Z,20.8
2017-05-27T06:36:34.666Z,20.84
2017-05-27T06:37:34.669Z,20.8
2017-05-27T06:38:34.996Z,20.81
2017-05-27T06:39:34.961Z,20.9
2017-05-27T06:40:35.289Z,20.91
2017-05-27T06:41:34.942Z,20.96
2017-05-27T06:42:34.939Z,20.98
2017-05-27T06:43:35.241Z,20.96
2017-05-27T06:44:35.231Z,21.02
2017-05-27T06:45:34.912Z,21.06
2017-05-27T06:46:35.216Z,21.11
2017-05-27T06:47:34.894Z,21.08
2017-05-27T06:48:35.203Z,21.26
2017-05-27T06:49:34.891Z,21.19
2017-05-27T06:50:34.929Z,21.27
2017-05-27T06:51:34.859Z,21.23
2017-05-27T06:52:34.860Z,21.34
2017-05-27T06:53:35.163Z,21.3
2017-05-27T06:54:35.165Z,21.29
2017-05-27T06:55:34.834Z,21.34
2017-05-27T06:56:34.825Z,21.44
2017-05-27T06:57:34.821Z,21.45
2017-05-27T06:58:34.812Z,21.54
2017-05-27T06:59:34.804Z,21.54
2017-05-27T07:00:34.793Z,21.63
2017-05-27T07:01:34.467Z,21.59
2017-05-27T07:02:34.463Z,21.64
2017-05-27T07:03:35.095Z,21.69
2017-05-27T07:04:34.773Z,21.72
2017-05-27T07:05:34.758Z,21.74
2017-05-27T07:06:35.064Z,21.79
2017-05-27T07:07:34.739Z,21.83
2017-05-27T07:08:35.054Z,21.88
2017-05-27T07:09:34.408Z,21.9
2017-05-27T07:10:34.714Z,21.85
2017-05-27T07:11:34.722Z,22.04
2017-05-27T07:12:34.701Z,21.98
2017-05-27T07:13:34.705Z,22.09
2017-05-27T07:14:34.766Z,22.07
2017-05-27T07:15:35.009Z,22.06
2017-05-27T07:16:34.675Z,22.07
2017-05-27T07:17:34.981Z,22.23
2017-05-27T07:18:34.660Z,22.2
2017-05-27T07:19:34.654Z,22.34
2017-05-27T07:20:34.647Z,22.32
2017-05-27T07:21:34.319Z,22.44
2017-05-27T07:22:34.642Z,22.43
2017-05-27T07:23:34.626Z,22.44
2017-05-27T07:24:34.611Z,22.49
2017-05-27T07:25:34.343Z,22.43
2017-05-27T07:26:34.600Z,22.64
2017-05-27T07:27:34.906Z,23.02
2017-05-27T07:28:34.589Z,24.13
2017-05-27T07:29:34.895Z,25.2
2017-05-27T07:30:34.261Z,26.27
2017-05-27T07:31:34.573Z,27.04
2017-05-27T07:32:34.569Z,27.74
2017-05-27T07:33:34.565Z,28.26
2017-05-27T07:34:34.251Z,28.51
2017-05-27T07:35:34.875Z,28.75
2017-05-27T07:36:34.868Z,29.29
2017-05-27T07:37:34.238Z,29.84
2017-05-27T07:38:34.240Z,30.29
2017-05-27T07:39:34.855Z,30.69
2017-05-27T07:40:34.858Z,30.54
2017-05-27T07:41:34.545Z,30.23
2017-05-27T07:42:34.538Z,30.5
2017-05-27T07:43:34.542Z,31.02
2017-05-27T07:44:34.531Z,30.74
2017-05-27T07:45:34.538Z,30.47
2017-05-27T07:46:34.528Z,31.18
2017-05-27T07:47:34.534Z,31.42
2017-05-27T07:48:34.524Z,31.72
2017-05-27T07:49:34.528Z,31.76
2017-05-27T07:50:34.529Z,31.98
2017-05-27T07:51:34.532Z,32.39
2017-05-27T07:52:34.219Z,32.58
2017-05-27T07:53:34.846Z,32.77
2017-05-27T07:54:34.539Z,32.88
2017-05-27T07:55:34.840Z,33.08
2017-05-27T07:56:34.530Z,32.71
2017-05-27T07:57:34.841Z,32.06
2017-05-27T07:58:34.227Z,31.88
2017-05-27T07:59:34.541Z,31.48
2017-05-27T08:00:34.530Z,31.46
2017-05-27T08:01:34.533Z,31.24
2017-05-27T08:02:34.536Z,30.98
2017-05-27T08:03:34.223Z,30.94
2017-05-27T08:04:34.864Z,31.53
2017-05-27T08:05:34.855Z,32.14
2017-05-27T08:06:34.542Z,32.52
2017-05-27T08:07:34.682Z,32.49
2017-05-27T08:08:34.544Z,32.47
2017-05-27T08:09:34.856Z,32.44
2017-05-27T08:10:34.856Z,32.73
2017-05-27T08:11:34.869Z,32.52
2017-05-27T08:12:34.864Z,32.48
2017-05-27T08:13:34.555Z,32.76
2017-05-27T08:14:34.862Z,32.8
2017-05-27T08:15:34.556Z,32.54
2017-05-27T08:16:34.556Z,32.67
2017-05-27T08:17:34.600Z,32.91
2017-05-27T08:18:34.878Z,32.74
2017-05-27T08:19:34.571Z,32.95
2017-05-27T08:20:34.880Z,33.33
2017-05-27T08:21:34.877Z,33.48
2017-05-27T08:22:34.569Z,33.74
2017-05-27T08:23:34.893Z,33.76
2017-05-27T08:24:34.577Z,33.01
2017-05-27T08:25:34.259Z,32.93
2017-05-27T08:26:34.628Z,32.79
2017-05-27T08:27:34.587Z,33.11
2017-05-27T08:28:34.588Z,32.99
2017-05-27T08:29:34.592Z,33.3
2017-05-27T08:30:34.589Z,33.57
2017-05-27T08:31:34.907Z,34.04
2017-05-27T08:32:34.284Z,34.02
2017-05-27T08:33:34.914Z,34.16
2017-05-27T08:34:34.602Z,34.44
2017-05-27T08:35:34.918Z,34.64
2017-05-27T08:36:34.605Z,34.84
2017-05-27T08:37:34.298Z,35.13
2017-05-27T08:38:34.609Z,35.36
2017-05-27T08:39:34.949Z,35.51
2017-05-27T08:40:34.303Z,35.07
2017-05-27T08:41:34.937Z,33.85
2017-05-27T08:42:34.309Z,33.45
2017-05-27T08:43:34.634Z,33.22
2017-05-27T08:44:34.659Z,33.17
2017-05-27T08:45:34.955Z,32.85
2017-05-27T08:46:34.319Z,33.04
2017-05-27T08:47:34.963Z,33.61
2017-05-27T08:48:34.647Z,34.04
2017-05-27T08:49:34.644Z,34.02
2017-05-27T08:50:34.338Z,33.73
2017-05-27T08:51:34.336Z,33.97
2017-05-27T08:52:34.660Z,34.27
2017-05-27T08:53:34.659Z,34.45
2017-05-27T08:54:34.346Z,34.51
2017-05-27T08:55:34.977Z,34.73
2017-05-27T08:56:34.668Z,34.58
2017-05-27T08:57:34.674Z,34.31
2017-05-27T08:58:34.676Z,33.86
2017-05-27T08:59:34.367Z,33.68
2017-05-27T09:00:34.679Z,33.79
2017-05-27T09:01:34.676Z,33.48
2017-05-27T09:02:34.687Z,32.88
2017-05-27T09:03:35.004Z,32.42
2017-05-27T09:04:34.390Z,32.44
2017-05-27T09:05:34.380Z,32.4
2017-05-27T09:06:35.019Z,32.03
2017-05-27T09:07:35.016Z,31.55
2017-05-27T09:08:35.013Z,31.38
2017-05-27T09:09:34.702Z,31.48
2017-05-27T09:10:35.017Z,31.36
2017-05-27T09:11:34.706Z,31.08
2017-05-27T09:12:34.707Z,30.96
2017-05-27T09:13:34.393Z,30.98
2017-05-27T09:14:34.402Z,31.15
2017-05-27T09:15:35.025Z,31.36
2017-05-27T09:16:34.710Z,31.38
2017-05-27T09:17:35.026Z,31.45
2017-05-27T09:18:34.723Z,31.26
2017-05-27T09:19:35.033Z,31.3
2017-05-27T09:20:35.034Z,31.7
2017-05-27T09:21:34.717Z,31.95
2017-05-27T09:22:34.406Z,32.15
2017-05-27T09:23:35.049Z,32.37
2017-05-27T09:24:34.738Z,32.79
2017-05-27T09:25:35.041Z,33.01
2017-05-27T09:26:35.050Z,33.31
2017-05-27T09:27:34.734Z,33.1
2017-05-27T09:28:35.049Z,32.8
2017-05-27T09:29:34.741Z,32.88
2017-05-27T09:30:34.745Z,32.93
2017-05-27T09:31:34.741Z,33.14
2017-05-27T09:32:34.436Z,33.45
2017-05-27T09:33:34.435Z,33.45
2017-05-27T09:34:35.076Z,33.22
2017-05-27T09:35:34.762Z,32.91
2017-05-27T09:36:34.758Z,32.93
2017-05-27T09:37:35.081Z,32.95
2017-05-27T09:38:34.765Z,32.93
2017-05-27T09:39:35.089Z,32.7
2017-05-27T09:40:34.813Z,32.59
2017-05-27T09:41:34.778Z,32.15
2017-05-27T09:42:35.101Z,31.96
2017-05-27T09:43:35.100Z,31.54
2017-05-27T09:44:34.793Z,31.12
2017-05-27T09:45:34.789Z,31.04
2017-05-27T09:46:34.788Z,30.71
2017-05-27T09:47:35.118Z,30.56
2017-05-27T09:48:34.793Z,30.46
2017-05-27T09:49:34.479Z,30.3
2017-05-27T09:50:34.809Z,30.09
2017-05-27T09:51:35.114Z,29.97
2017-05-27T09:52:35.111Z,30.02
2017-05-27T09:53:34.484Z,30.02
2017-05-27T09:54:35.113Z,30.03
2017-05-27T09:55:34.804Z,30.09
2017-05-27T09:56:34.802Z,30.19
2017-05-27T09:57:34.809Z,30.46
2017-05-27T09:58:34.808Z,30.78
2017-05-27T09:59:34.815Z,31.18
2017-05-27T10:00:34.495Z,31.54
2017-05-27T10:01:34.810Z,31.84
2017-05-27T10:02:34.498Z,32.25
2017-05-27T10:03:34.818Z,32.71
2017-05-27T10:04:35.158Z,33.07
2017-05-27T10:05:34.508Z,32.49
2017-05-27T10:06:34.830Z,31.95
2017-05-27T10:07:35.033Z,32.11
2017-05-27T10:08:34.828Z,32.29
2017-05-27T10:09:35.150Z,32.51
2017-05-27T10:10:34.843Z,32.13
2017-05-27T10:11:34.528Z,32.05
2017-05-27T10:12:35.187Z,32.58
2017-05-27T10:13:34.848Z,32.98
2017-05-27T10:14:34.546Z,33.07
2017-05-27T10:15:35.227Z,33.27
2017-05-27T10:16:35.190Z,33.23
2017-05-27T10:17:34.895Z,33.29
2017-05-27T10:18:34.874Z,33.42
2017-05-27T10:19:35.250Z,33.92
2017-05-27T10:20:34.877Z,34.19
2017-05-27T10:21:34.879Z,33.55
2017-05-27T10:22:34.886Z,33.31
2017-05-27T10:23:35.205Z,33.46
2017-05-27T10:24:34.903Z,33.94
2017-05-27T10:25:34.898Z,34.44
2017-05-27T10:26:35.212Z,34.22
2017-05-27T10:27:34.591Z,34.04
2017-05-27T10:28:35.225Z,34.07
2017-05-27T10:29:35.231Z,34.19
2017-05-27T10:30:35.236Z,33.76
2017-05-27T10:31:35.247Z,33.73
2017-05-27T10:32:35.244Z,33.49
2017-05-27T10:33:34.931Z,33.42
2017-05-27T10:34:35.265Z,33.58
2017-05-27T10:35:34.942Z,34.13
2017-05-27T10:36:34.635Z,34.38
2017-05-27T10:37:35.268Z,34.6
2017-05-27T10:38:34.958Z,34.58
2017-05-27T10:39:35.321Z,34.46
2017-05-27T10:40:35.289Z,34.74
2017-05-27T10:41:34.659Z,33.95
2017-05-27T10:42:35.342Z,33.45
2017-05-27T10:43:35.301Z,32.99
2017-05-27T10:44:34.671Z,33.07
2017-05-27T10:45:35.310Z,32.79
2017-05-27T10:46:35.317Z,32.93
2017-05-27T10:47:35.327Z,33.2
2017-05-27T10:48:35.018Z,33.7
2017-05-27T10:49:35.332Z,33.98
2017-05-27T10:50:35.338Z,34.11
2017-05-27T10:51:35.342Z,34.23
2017-05-27T10:52:35.034Z,34.45
2017-05-27T10:53:35.352Z,34.6
2017-05-27T10:54:34.722Z,35.17
2017-05-27T10:55:35.045Z,35.2
2017-05-27T10:56:35.362Z,35.23
2017-05-27T10:57:35.067Z,35.29
2017-05-27T10:58:35.370Z,35.51
2017-05-27T10:59:35.085Z,35.81
2017-05-27T11:00:35.390Z,35.91
2017-05-27T11:01:35.081Z,35.92
2017-05-27T11:02:35.080Z,35.33
2017-05-27T11:03:35.088Z,35.64
2017-05-27T11:04:35.407Z,35.92
2017-05-27T11:05:35.412Z,36.19
2017-05-27T11:06:34.790Z,36.67
2017-05-27T11:07:35.108Z,36.46
2017-05-27T11:08:35.121Z,35.88
2017-05-27T11:09:35.443Z,35.32
2017-05-27T11:10:35.132Z,34.38
2017-05-27T11:11:34.882Z,34.31
2017-05-27T11:12:35.139Z,34.19
2017-05-27T11:13:35.468Z,34.31
2017-05-27T11:14:35.483Z,34.38
2017-05-27T11:15:35.155Z,34.13
2017-05-27T11:16:35.170Z,34
2017-05-27T11:17:35.166Z,34.16
2017-05-27T11:18:35.178Z,34.39
2017-05-27T11:19:35.489Z,34.39
2017-05-27T11:20:35.209Z,33.89
2017-05-27T11:21:35.189Z,33.43
2017-05-27T11:22:35.212Z,33.04
2017-05-27T11:23:35.201Z,33.01
2017-05-27T11:24:35.210Z,33.23
2017-05-27T11:25:35.212Z,33.7
2017-05-27T11:26:35.555Z,34.16
2017-05-27T11:27:35.594Z,34.01
2017-05-27T11:28:35.228Z,33.48
2017-05-27T11:29:35.231Z,33.7
2017-05-27T11:30:35.247Z,33.89
2017-05-27T11:31:35.244Z,34.11
2017-05-27T11:32:35.631Z,34.64
2017-05-27T11:33:35.569Z,34.94
2017-05-27T11:34:35.576Z,34.22
2017-05-27T11:35:35.265Z,34.14
2017-05-27T11:36:35.271Z,33.45
2017-05-27T11:37:34.961Z,33.71
2017-05-27T11:38:35.629Z,33.46
2017-05-27T11:39:35.604Z,32.77
2017-05-27T11:40:35.327Z,32.98
2017-05-27T11:41:35.293Z,33.33
2017-05-27T11:42:35.365Z,33.86
2017-05-27T11:43:35.307Z,34.44
2017-05-27T11:44:35.314Z,34.27
2017-05-27T11:45:35.628Z,34.41
2017-05-27T11:46:35.637Z,34.35
2017-05-27T11:47:35.331Z,34.76
2017-05-27T11:48:35.336Z,35.3
2017-05-27T11:49:35.341Z,35.81
2017-05-27T11:50:35.667Z,35.73
2017-05-27T11:51:35.349Z,35.67
2017-05-27T11:52:35.356Z,35.76
2017-05-27T11:53:35.364Z,36.06
2017-05-27T11:54:35.688Z,36.36
2017-05-27T11:55:35.375Z,36.77
2017-05-27T11:56:35.699Z,36.92
2017-05-27T11:57:35.381Z,37.13
2017-05-27T11:58:35.701Z,37.36
2017-05-27T11:59:35.400Z,37.78
2017-05-27T12:00:35.415Z,38.14
2017-05-27T12:01:35.138Z,38.15
2017-05-27T12:02:35.728Z,38.11
2017-05-27T12:03:35.413Z,38.22
2017-05-27T12:04:35.739Z,38.32
2017-05-27T12:05:35.112Z,38.27
2017-05-27T12:06:35.758Z,38.45
2017-05-27T12:07:35.130Z,38.08
2017-05-27T12:08:35.454Z,37.16
2017-05-27T12:09:35.766Z,36.94
2017-05-27T12:10:35.457Z,36.73
2017-05-27T12:11:35.779Z,36.39
2017-05-27T12:12:35.793Z,36.54
2017-05-27T12:13:35.168Z,36.45
2017-05-27T12:14:35.490Z,36.06
2017-05-27T12:15:35.812Z,36.11
2017-05-27T12:16:35.497Z,36.57
2017-05-27T12:17:35.503Z,36.8
2017-05-27T12:18:35.828Z,36.51
2017-05-27T12:19:35.518Z,35.51
2017-05-27T12:20:35.836Z,35.77
2017-05-27T12:21:35.529Z,35.95
2017-05-27T12:22:35.850Z,36.26
2017-05-27T12:23:35.853Z,36.08
2017-05-27T12:24:35.864Z,35.4
2017-05-27T12:25:35.553Z,35.25
2017-05-27T12:26:35.249Z,35.11
2017-05-27T12:27:35.306Z,35.5
2017-05-27T12:28:35.895Z,35.67
2017-05-27T12:29:35.897Z,35.93
2017-05-27T12:30:35.586Z,36.27
2017-05-27T12:31:35.591Z,36.41
2017-05-27T12:32:35.602Z,35.77
2017-05-27T12:33:35.919Z,34.91
2017-05-27T12:34:35.625Z,34.27
2017-05-27T12:35:35.303Z,33.71
2017-05-27T12:36:35.942Z,33.6
2017-05-27T12:37:35.948Z,33.65
2017-05-27T12:38:35.641Z,33.64
2017-05-27T12:39:35.957Z,33.95
2017-05-27T12:40:35.966Z,34.44
2017-05-27T12:41:35.659Z,35.01
2017-05-27T12:42:35.658Z,35.39
2017-05-27T12:43:35.672Z,34.84
2017-05-27T12:44:35.876Z,34.42
2017-05-27T12:45:35.681Z,34.44
2017-05-27T12:46:36.001Z,34.42
2017-05-27T12:47:35.691Z,34.61
2017-05-27T12:48:35.387Z,35.15
2017-05-27T12:49:35.711Z,35.36
2017-05-27T12:50:35.401Z,35.76
2017-05-27T12:51:35.717Z,36.14
2017-05-27T12:52:35.739Z,36.57
2017-05-27T12:53:36.041Z,36.6
2017-05-27T12:54:35.734Z,36.83